Corguinho, Brazil
Current Conditions -  °F | °C
As of 10:00 PM on Monday 20 Oct 2014 (Local Time) from SBCG Reporting Station
Broken Clouds Broken Clouds  
Wind Chill: 66°   Ceiling: 10000
Heat Index: 66°   Visibility: 6mi
Dew Point: 63°   Wind: 2mph
Humidity: 88%   Direction: 20°NNE
Pressure: 30"   Gusts: NA
Location:  19.83°S, 54.83°W
Report Text: SBCG 210200Z 02002KT 9999 FEW045 FEW050TCU BKN100 19/17 Q1016
Loading
Personal Weather Stations






























Interactive Weather Map
Tropical Storm Tracking
New forecast layout! Learn more

10-Day Weather Forecast

Advertisements
Track Severe Weather on mobile